RELACIONES PÚBLICAS

27/12/2017PERSPECTIVAS CLIMÁTICAS PARA ENERO – FEBRERO - MARZO 2017  Se adjunta el Informe de Perspectivas Climáticas para el trimestre Enero, Febrero y Marzo del 2017.http://meteorologia.gub.uy/ServCli/tendenciasClimaticas

Productos aeronáuticos

  • SIGMET
  • METAR / SPECI
  • TAF
  • AIREP
  • Aviso de aeródromo
  • Pronárea
  • Carta superficie

Mensajes METAR de la última hora

SUAA 261200Z 03010KT 9999 SCT026 26/2 Q1013
SUDU 261200Z 00000KT CAVOK 27/23 Q1012
SULS 261200Z 08005KT 9999 FEW040 SCT070 BKN200 25/20 Q1014
SUMU 261200Z 02005KT 9999 FEW046 BKN200 26/21 Q1014 NOSIG
SUSO 261200Z 06007KT CAVOK 27/22 Q1012

Mensajes METAR de la última hora - Internacionales


Argentina
SAAR 261200Z 05005KT CAVOK 29/25 Q1012
SABE 261200Z 36005KT CAVOK 28/24 Q1012
SACO 261200Z 36007KT 7000 SCT025TCU SCT100 24/22 Q1014
SAEZ 261200Z 02005KT CAVOK 29/24 Q1012
SAME 261200Z 14002KT CAVOK 22/19 Q1012
SAEZ 261130Z 09003KT 5000 BR NSC 28/25 Q1012
Bolivia
SLCP 261200Z 30005KT 9999 OVC006 23/23 Q1015
SLLP 261200Z VRB02KT 9999 FEW005 SCT015 BKN070 06/03 Q1036
Brasil
SBBR 261200Z 09002KT 9999 SCT004 BKN007 21/19 Q1020
SBFI 261200Z 08004KT CAVOK 27/23 Q1012
SBFL 261200Z 22008KT 9999 SCT030 27/22 Q1013
SBGR 261200Z 02003KT 9999 FEW015 BKN050 23/19 Q1018
SBPA 261200Z 04006KT 9999 FEW011 SCT022 26/24 Q1014
SBRJ 261200Z 15004KT 9999 FEW020 BKN100 24/22 Q1013
SBSP 261200Z 30006KT 9999 FEW023 24/17 Q1018
Colombia
SKBO 261200Z 33003KT 8000 VCFG FEW015 SCT020 BKN070 11/10 A3033
Chile
SCCI 261200Z 32014KT 9999 FEW047 SCT055 11/04 Q1005 NOSIG
SCEL 261200Z 15005KT 9999 BKN150 20/14 Q1014 NOSIG
Ecuador
SEQM 261200Z 14002KT 6000 BCFG FEW004 SCT016 OVC070 12/11 Q1027 BECMG TL1300 9999 RMK A3032
EEUU
KMIA 261153Z 35006KT 10SM FEW030 FEW045 19/17 A3006 RMK AO2 SLP180 T01890172 10211 20189 53019
KDCA 261152Z 33010G17KT 10SM SCT049 02/M09 A3007 RMK AO2 PK WND 33026/1122 SLP183 70018 T00221089 10067 20017 53035
KIAD 261152Z 31014G21KT 10SM SCT048 01/M10 A3006 RMK AO2 SLP179 70008 T00061100 10044 20006 53028
KJFK 261151Z 30019G27KT 10SM BKN049 BKN060 03/M07 A2990 RMK AO2 PK WND 29029/1118 SLP125 70034 T00331072 10072 20033 51042
KLGA 261151Z 30016G21KT 10SM BKN050 04/M07 A2989 RMK AO2 PK WND 30026/1133 SLP121 70032 T00391072 10072 20039 53040 $
España
LEBL 261200Z 21013KT 9999 FEW025 14/09 Q1021 NOSIG
LEMD 261200Z 24002KT 9999 BKN011 09/06 Q1022 BECMG BKN016
LEBL 261130Z 22011KT 190V250 9999 FEW025 14/08 Q1022 NOSIG
LEMD 261130Z 21001KT 9999 BKN009 08/06 Q1022 BECMG BKN016
Francia
LFPO 261200Z 21008KT 9999 BKN015 BKN027 11/06 Q1015 NOSIG
LFPO 261130Z 21010KT 9999 BKN014 11/06 Q1015 NOSIG
Inglaterra
EGLL 261150Z 23017KT 9999 BKN026 11/07 Q1007 NOSIG
EGLL 261120Z 24014KT 9999 FEW017 BKN026 11/08 Q1007
Panamá
MPTO 261200Z 31004KT 9000 FEW020 21/20 Q1012 NOSIG
Paraguay
SGAS 261200Z VRB02KT CAVOK 29/24 Q1011
SGAS 261130Z VRB02KT CAVOK 28/24 Q1010
Venezuela
SVMI 261200Z 00000KT 9999 SCT016 29/20 Q1014

* Datos extraidos del Text DataServer de la NOAA (NOAA TEXT DATA SERVER)

Instituto Uruguayo de Meteorología

Dr. Javier Barrios Amorín 1488 - CP 11200
1895 int 108

Montevideo - Uruguay